US-0117 weather

Allied Heliport
Tulsa, Oklahoma, United States

Public forecast

Using degrees Fahrenheit for public forecast. Weather courtesy of forecast.io.

METAR (pilot weather report)

Closest report is Tulsa International Airport, 5.7 nm (10.6 km) E. Retrieved 2019/04/26 02:53 UTC (25 minutes ago):

KTUL 260253Z 32008KT 10SM CLR 17/10 A3001 RMK AO2 SLP157 T01670100 51043

TAF (pilot weather forecast)

Forecast is more than 12 hours old.

Closest forecast is Tulsa International Airport, 5.7 nm (10.6 km) E. Retrieved 2019/04/25 00:22 UTC (1 day ago):

TAF KTUL 252320Z 2600/2624 33019G25KT P6SM SCT060 FM260200 35006KT P6SM SKC FM262000 14005KT P6SM FEW250